Terminal Aerodrome Forecast
Issued by NWS Anchorage, AK

Home | Current Version | Previous Version | Text Only | Print | Product List | Glossary On
Versions: 1 2 3 4 5 6 7 8 9 10 11 12 13 14 15 16 17 18 19
000
FTAK31 PANC 261448 AAB
TAFANC
TAF AMD
PANC 261448Z 2615/2718 18003KT P6SM BKN040
     FM261600 20006KT P6SM FEW050 BKN150
     FM262200 28008KT P6SM -RA OVC060
     FM270200 17015G25KT P6SM BKN060 OVC080
     FM270800 15008KT P6SM OVC080
     FM271300 04005KT P6SM OVC060=

USA.gov is the U.S. government's official web portal to all federal, state and local government web resources and services.